Time,TemperatureF,DewpointF,PressureIn,WindDirection,WindDirectionDegrees,WindSpeedMPH,WindSpeedGustMPH,Humidity,HourlyPrecipIn,Conditions,Clouds,dailyrainin,SolarRadiationWatts/m^2,SoftwareType,DateUTC
2013-06-12 00:03:00,57.0,57.0,-100.00,East,90,1.0,2.0,99,0.00,,,0.84,0.000000,,2013-06-12 04:03:00,
2013-06-12 00:13:00,57.0,57.0,-100.00,East,90,1.0,2.0,99,0.00,,,0.84,0.000000,,2013-06-12 04:13:00,
2013-06-12 00:34:00,59.0,56.0,-100.00,WNW,300,3.0,9.0,90,0.03,,,0.87,0.000000,,2013-06-12 04:34:00,
2013-06-12 00:43:00,59.0,56.0,-100.00,WNW,300,3.0,9.0,90,0.03,,,0.87,0.000000,,2013-06-12 04:43:00,
2013-06-12 00:53:00,59.0,56.0,-100.00,WNW,300,3.0,9.0,90,0.03,,,0.87,0.000000,,2013-06-12 04:53:00,
2013-06-12 01:03:00,59.0,56.0,-100.00,WNW,300,3.0,9.0,90,0.03,,,0.87,0.000000,,2013-06-12 05:03:00,
2013-06-12 01:12:00,59.0,56.0,-100.00,WNW,300,3.0,9.0,90,0.03,,,0.87,0.000000,,2013-06-12 05:12:00,
2013-06-12 01:42:00,58.0,57.0,-100.00,NE,51,1.0,6.0,95,0.04,,,0.88,0.000000,,2013-06-12 05:42:00,
2013-06-12 01:52:00,58.0,57.0,-100.00,NE,51,1.0,6.0,95,0.04,,,0.88,0.000000,,2013-06-12 05:52:00,
2013-06-12 02:02:00,58.0,57.0,-100.00,NE,51,1.0,6.0,95,0.04,,,0.88,0.000000,,2013-06-12 06:02:00,
2013-06-12 02:12:00,58.0,57.0,-100.00,NE,51,1.0,6.0,95,0.04,,,0.88,0.000000,,2013-06-12 06:12:00,
2013-06-12 02:42:00,57.0,56.0,-100.00,ENE,63,1.0,3.0,97,0.01,,,0.83,0.000000,,2013-06-12 06:42:00,
2013-06-12 02:52:00,57.0,56.0,-100.00,ENE,63,1.0,3.0,97,0.01,,,0.83,0.000000,,2013-06-12 06:52:00,
2013-06-12 03:02:00,57.0,56.0,-100.00,ENE,63,1.0,3.0,97,0.01,,,0.83,0.000000,,2013-06-12 07:02:00,
2013-06-12 03:12:00,57.0,56.0,-100.00,ENE,63,1.0,3.0,97,0.01,,,0.83,0.000000,,2013-06-12 07:12:00,
2013-06-12 03:43:00,56.0,55.0,-100.00,ESE,114,0.0,3.0,98,0.00,,,0.68,0.000000,,2013-06-12 07:43:00,
2013-06-12 03:53:00,56.0,55.0,-100.00,ESE,114,0.0,3.0,98,0.00,,,0.68,0.000000,,2013-06-12 07:53:00,
2013-06-12 04:02:00,56.0,55.0,-100.00,ESE,114,0.0,3.0,98,0.00,,,0.68,0.000000,,2013-06-12 08:02:00,
2013-06-12 04:12:00,56.0,55.0,-100.00,ESE,114,0.0,3.0,98,0.00,,,0.68,0.000000,,2013-06-12 08:12:00,
2013-06-12 04:43:00,55.0,54.0,-100.00,NE,37,1.0,4.0,96,0.00,,,0.63,0.000000,,2013-06-12 08:43:00,
2013-06-12 04:53:00,55.0,54.0,-100.00,NE,37,1.0,4.0,96,0.00,,,0.63,0.000000,,2013-06-12 08:53:00,
2013-06-12 05:01:00,55.0,54.0,-100.00,NE,37,1.0,4.0,96,0.00,,,0.63,0.000000,,2013-06-12 09:01:00,
2013-06-12 05:12:00,55.0,54.0,-100.00,NE,37,1.0,4.0,96,0.00,,,0.63,0.000000,,2013-06-12 09:12:00,
2013-06-12 05:43:00,54.0,52.0,-100.00,NE,42,1.0,4.0,94,0.00,,,0.61,0.000000,,2013-06-12 09:43:00,
2013-06-12 05:53:00,54.0,52.0,-100.00,NE,42,1.0,4.0,94,0.00,,,0.61,0.000000,,2013-06-12 09:53:00,
2013-06-12 06:02:00,54.0,52.0,-100.00,NE,42,1.0,4.0,94,0.00,,,0.61,0.000000,,2013-06-12 10:02:00,
2013-06-12 06:12:00,54.0,52.0,-100.00,NE,42,1.0,4.0,94,0.00,,,0.61,0.000000,,2013-06-12 10:12:00,
2013-06-12 06:43:00,54.0,52.0,-100.00,ENE,61,2.0,6.0,93,0.00,,,-99.99,7.000000,,2013-06-12 10:43:00,
2013-06-12 06:53:00,54.0,52.0,-100.00,ENE,61,2.0,6.0,93,0.00,,,-99.99,7.000000,,2013-06-12 10:53:00,
2013-06-12 07:02:00,54.0,52.0,-100.00,ENE,61,2.0,6.0,93,0.00,,,-99.99,7.000000,,2013-06-12 11:02:00,
2013-06-12 07:12:00,54.0,52.0,-100.00,ENE,61,2.0,6.0,93,0.00,,,-99.99,7.000000,,2013-06-12 11:12:00,
2013-06-12 07:43:00,55.0,54.0,-100.00,NNE,32,1.0,9.0,96,0.02,,,0.62,47.000000,,2013-06-12 11:43:00,
2013-06-12 07:53:00,55.0,54.0,-100.00,NNE,32,1.0,9.0,96,0.02,,,0.62,47.000000,,2013-06-12 11:53:00,
2013-06-12 08:02:00,55.0,54.0,-100.00,NNE,32,1.0,9.0,96,0.02,,,0.62,47.000000,,2013-06-12 12:02:00,
2013-06-12 08:11:00,55.0,54.0,-100.00,NNE,32,1.0,9.0,96,0.02,,,0.62,47.000000,,2013-06-12 12:11:00,
2013-06-12 08:43:00,56.0,53.0,-100.00,NNE,26,2.0,7.0,91,0.00,,,-99.99,65.000000,,2013-06-12 12:43:00,
2013-06-12 08:53:00,56.0,53.0,-100.00,NNE,26,2.0,7.0,91,0.00,,,-99.99,65.000000,,2013-06-12 12:53:00,
2013-06-12 09:02:00,56.0,53.0,-100.00,NNE,26,2.0,7.0,91,0.00,,,-99.99,65.000000,,2013-06-12 13:02:00,
2013-06-12 09:12:00,56.0,53.0,-100.00,NNE,26,2.0,7.0,91,0.00,,,-99.99,65.000000,,2013-06-12 13:12:00,
2013-06-12 09:43:00,57.0,54.0,-100.00,North,9,4.0,7.0,91,0.00,,,0.60,89.000000,,2013-06-12 13:43:00,
2013-06-12 09:53:00,57.0,54.0,-100.00,North,9,4.0,7.0,91,0.00,,,0.60,89.000000,,2013-06-12 13:53:00,
2013-06-12 10:02:00,57.0,54.0,-100.00,North,9,4.0,7.0,91,0.00,,,0.60,89.000000,,2013-06-12 14:02:00,
2013-06-12 10:11:00,57.0,54.0,-100.00,North,9,4.0,7.0,91,0.00,,,0.60,89.000000,,2013-06-12 14:11:00,
2013-06-12 10:43:00,57.0,53.0,-100.00,North,9,3.0,13.0,86,0.00,,,0.59,88.000000,,2013-06-12 14:43:00,
2013-06-12 10:53:00,57.0,53.0,-100.00,North,9,3.0,13.0,86,0.00,,,0.59,88.000000,,2013-06-12 14:53:00,
2013-06-12 11:01:00,57.0,53.0,-100.00,North,9,3.0,13.0,86,0.00,,,0.59,88.000000,,2013-06-12 15:01:00,
2013-06-12 11:12:00,57.0,53.0,-100.00,North,9,3.0,13.0,86,0.00,,,0.59,88.000000,,2013-06-12 15:12:00,
2013-06-12 11:43:00,58.0,54.0,-100.00,North,0,3.0,9.0,85,0.00,,,0.58,85.000000,,2013-06-12 15:43:00,
2013-06-12 11:52:00,58.0,54.0,-100.00,North,0,3.0,9.0,85,0.00,,,0.58,85.000000,,2013-06-12 15:52:00,
2013-06-12 12:02:00,58.0,54.0,-100.00,North,0,3.0,9.0,85,0.00,,,0.58,85.000000,,2013-06-12 16:02:00,
2013-06-12 12:12:00,58.0,54.0,-100.00,North,0,3.0,9.0,85,0.00,,,0.58,85.000000,,2013-06-12 16:12:00,
2013-06-12 12:43:00,57.0,53.0,-100.00,NE,51,1.0,9.0,88,0.01,,,0.59,103.000000,,2013-06-12 16:43:00,
2013-06-12 12:53:00,57.0,53.0,-100.00,NE,51,1.0,9.0,88,0.01,,,0.59,103.000000,,2013-06-12 16:53:00,
2013-06-12 13:02:00,57.0,53.0,-100.00,NE,51,1.0,9.0,88,0.01,,,0.59,103.000000,,2013-06-12 17:02:00,
2013-06-12 13:12:00,57.0,53.0,-100.00,NE,51,1.0,9.0,88,0.01,,,0.59,103.000000,,2013-06-12 17:12:00,
2013-06-12 13:43:00,61.0,58.0,-100.00,ENE,63,3.0,6.0,89,0.00,,,-99.99,162.000000,,2013-06-12 17:43:00,
2013-06-12 13:52:00,61.0,58.0,-100.00,ENE,63,3.0,6.0,89,0.00,,,-99.99,162.000000,,2013-06-12 17:52:00,
2013-06-12 14:02:00,61.0,58.0,-100.00,ENE,63,3.0,6.0,89,0.00,,,-99.99,162.000000,,2013-06-12 18:02:00,
2013-06-12 14:12:00,61.0,58.0,-100.00,ENE,63,3.0,6.0,89,0.00,,,-99.99,162.000000,,2013-06-12 18:12:00,
2013-06-12 14:43:00,67.0,60.0,-100.00,North,352,4.0,10.0,78,0.00,,,-99.99,419.000000,,2013-06-12 18:43:00,
2013-06-12 14:53:00,67.0,60.0,-100.00,North,352,4.0,10.0,78,0.00,,,-99.99,419.000000,,2013-06-12 18:53:00,
2013-06-12 15:02:00,67.0,60.0,-100.00,North,352,4.0,10.0,78,0.00,,,-99.99,419.000000,,2013-06-12 19:02:00,
2013-06-12 15:11:00,67.0,60.0,-100.00,North,352,4.0,10.0,78,0.00,,,-99.99,419.000000,,2013-06-12 19:11:00,
2013-06-12 15:43:00,66.0,54.0,-100.00,North,6,4.0,12.0,65,0.00,,,0.59,293.000000,,2013-06-12 19:43:00,
2013-06-12 15:52:00,66.0,54.0,-100.00,North,6,4.0,12.0,65,0.00,,,0.59,293.000000,,2013-06-12 19:52:00,
2013-06-12 16:02:00,66.0,54.0,-100.00,North,6,4.0,12.0,65,0.00,,,0.59,293.000000,,2013-06-12 20:02:00,
2013-06-12 16:11:00,66.0,54.0,-100.00,North,6,4.0,12.0,65,0.00,,,0.59,293.000000,,2013-06-12 20:11:00,
2013-06-12 16:43:00,70.0,55.0,-100.00,NNE,13,8.0,17.0,59,0.00,,,0.42,533.000000,,2013-06-12 20:43:00,
2013-06-12 16:54:00,70.0,55.0,-100.00,NNE,13,8.0,17.0,59,0.00,,,0.42,533.000000,,2013-06-12 20:54:00,
2013-06-12 17:01:00,70.0,55.0,-100.00,NNE,13,8.0,17.0,59,0.00,,,0.42,533.000000,,2013-06-12 21:01:00,
2013-06-12 17:12:00,70.0,55.0,-100.00,NNE,13,8.0,17.0,59,0.00,,,0.42,533.000000,,2013-06-12 21:12:00,
2013-06-12 17:43:00,67.0,48.0,-100.00,North,11,7.0,20.0,50,0.00,,,0.34,580.000000,,2013-06-12 21:43:00,
2013-06-12 17:53:00,67.0,48.0,-100.00,North,11,7.0,20.0,50,0.00,,,0.34,580.000000,,2013-06-12 21:53:00,
2013-06-12 18:01:00,67.0,48.0,-100.00,North,11,7.0,20.0,50,0.00,,,0.34,580.000000,,2013-06-12 22:01:00,
2013-06-12 18:11:00,67.0,48.0,-100.00,North,11,7.0,20.0,50,0.00,,,0.34,580.000000,,2013-06-12 22:11:00,
2013-06-12 18:43:00,66.0,55.0,-100.00,NE,37,4.0,12.0,67,0.00,,,0.33,171.000000,,2013-06-12 22:43:00,
2013-06-12 18:53:00,66.0,55.0,-100.00,NE,37,4.0,12.0,67,0.00,,,0.33,171.000000,,2013-06-12 22:53:00,
2013-06-12 19:02:00,66.0,55.0,-100.00,NE,37,4.0,12.0,67,0.00,,,0.33,171.000000,,2013-06-12 23:02:00,
2013-06-12 19:12:00,66.0,55.0,-100.00,NE,37,4.0,12.0,67,0.00,,,0.33,171.000000,,2013-06-12 23:12:00,
2013-06-12 19:43:00,67.0,51.0,-100.00,North,2,1.0,9.0,57,0.00,,,0.31,246.000000,,2013-06-12 23:43:00,
2013-06-12 19:53:00,67.0,51.0,-100.00,North,2,1.0,9.0,57,0.00,,,0.31,246.000000,,2013-06-12 23:53:00,
2013-06-12 20:02:00,67.0,51.0,-100.00,North,2,1.0,9.0,57,0.00,,,0.31,246.000000,,2013-06-13 00:02:00,
2013-06-12 20:12:00,67.0,51.0,-100.00,North,2,1.0,9.0,57,0.00,,,0.31,246.000000,,2013-06-13 00:12:00,
2013-06-12 20:43:00,58.0,53.0,-100.00,NE,47,1.0,3.0,83,0.00,,,-99.99,27.000000,,2013-06-13 00:43:00,
2013-06-12 20:52:00,58.0,53.0,-100.00,NE,47,1.0,3.0,83,0.00,,,-99.99,27.000000,,2013-06-13 00:52:00,
2013-06-12 21:01:00,58.0,53.0,-100.00,NE,47,1.0,3.0,83,0.00,,,-99.99,27.000000,,2013-06-13 01:01:00,
2013-06-12 21:12:00,58.0,53.0,-100.00,NE,47,1.0,3.0,83,0.00,,,-99.99,27.000000,,2013-06-13 01:12:00,
2013-06-12 21:33:00,54.0,53.0,-100.00,SSE,158,0.0,2.0,96,0.00,,,0.15,3.000000,,2013-06-13 01:33:00,
2013-06-12 21:43:00,54.0,53.0,-100.00,SSE,158,0.0,2.0,96,0.00,,,0.15,3.000000,,2013-06-13 01:43:00,
2013-06-12 21:53:00,54.0,53.0,-100.00,SSE,158,0.0,2.0,96,0.00,,,0.15,3.000000,,2013-06-13 01:53:00,
2013-06-12 22:02:00,54.0,53.0,-100.00,SSE,158,0.0,2.0,96,0.00,,,0.15,3.000000,,2013-06-13 02:02:00,
2013-06-12 22:12:00,54.0,53.0,-100.00,SSE,158,0.0,2.0,96,0.00,,,0.15,3.000000,,2013-06-13 02:12:00,
2013-06-12 22:43:00,52.0,51.0,-100.00,South,178,1.0,3.0,98,0.00,,,0.11,0.000000,,2013-06-13 02:43:00,
2013-06-12 22:52:00,52.0,51.0,-100.00,South,178,1.0,3.0,98,0.00,,,0.11,0.000000,,2013-06-13 02:52:00,
2013-06-12 23:02:00,52.0,51.0,-100.00,South,178,1.0,3.0,98,0.00,,,0.11,0.000000,,2013-06-13 03:02:00,
2013-06-12 23:12:00,52.0,51.0,-100.00,South,178,1.0,3.0,98,0.00,,,0.11,0.000000,,2013-06-13 03:12:00,
2013-06-12 23:43:00,51.0,51.0,-100.00,NW,314,0.0,3.0,99,0.00,,,0.11,0.000000,,2013-06-13 03:43:00,
2013-06-12 23:52:00,51.0,51.0,-100.00,NW,314,0.0,3.0,99,0.00,,,0.11,0.000000,,2013-06-13 03:52:00,